createdAt,value
2023-05-20T00:01:15.433Z,1.20
2023-05-20T00:03:43.092Z,1.20
2023-05-20T00:06:10.971Z,1.00
2023-05-20T00:08:38.659Z,2.20
2023-05-20T00:11:06.480Z,2.00
2023-05-20T00:13:36.351Z,2.00
2023-05-20T00:16:04.220Z,2.20
2023-05-20T00:18:32.876Z,1.40
2023-05-20T00:21:00.668Z,1.00
2023-05-20T00:23:28.133Z,2.20
2023-05-20T00:25:56.988Z,1.80
2023-05-20T00:28:25.322Z,1.00
2023-05-20T00:30:52.733Z,1.40
2023-05-20T00:33:20.228Z,1.80
2023-05-20T00:35:47.806Z,1.00
2023-05-20T00:38:15.343Z,1.00
2023-05-20T00:40:42.821Z,0.00
2023-05-20T00:43:11.072Z,1.00
2023-05-20T00:45:39.143Z,1.00
2023-05-20T00:48:08.004Z,2.00
2023-05-20T00:50:35.967Z,1.20
2023-05-20T00:53:04.227Z,1.60
2023-05-20T00:55:32.397Z,1.00
2023-05-20T00:58:00.159Z,1.00
2023-05-20T01:00:27.774Z,1.00
2023-05-20T01:02:57.460Z,0.40
2023-05-20T01:05:25.313Z,1.00
2023-05-20T01:07:53.108Z,2.00
2023-05-20T01:10:21.716Z,1.00
2023-05-20T01:12:52.745Z,1.00
2023-05-20T01:15:24.174Z,0.00
2023-05-20T01:17:58.250Z,1.00
2023-05-20T01:20:26.581Z,1.00
2023-05-20T01:22:57.278Z,0.20
2023-05-20T01:25:26.808Z,1.00
2023-05-20T01:27:58.081Z,1.00
2023-05-20T01:30:34.213Z,0.00
2023-05-20T01:33:22.249Z,0.40
2023-05-20T01:35:52.195Z,1.40
2023-05-20T01:38:21.400Z,1.00
2023-05-20T01:40:50.169Z,0.60
2023-05-20T01:43:19.173Z,1.00
2023-05-20T01:45:47.456Z,1.00
2023-05-20T01:48:14.973Z,0.00
2023-05-20T01:50:42.727Z,1.80
2023-05-20T01:53:11.383Z,1.00
2023-05-20T01:55:39.418Z,0.00
2023-05-20T01:58:07.155Z,0.60
2023-05-20T02:00:36.126Z,1.00
2023-05-20T02:03:04.887Z,1.00
2023-05-20T02:05:32.503Z,1.00
2023-05-20T02:08:00.384Z,1.80
2023-05-20T02:10:27.844Z,1.00
2023-05-20T02:12:55.235Z,1.00
2023-05-20T02:15:22.800Z,0.80
2023-05-20T02:17:50.601Z,0.20
2023-05-20T02:20:18.380Z,1.00
2023-05-20T02:22:46.062Z,1.00
2023-05-20T02:25:13.584Z,1.00
2023-05-20T02:27:41.348Z,1.00
2023-05-20T02:30:09.397Z,0.80
2023-05-20T02:32:36.914Z,1.00
2023-05-20T02:35:04.813Z,0.00
2023-05-20T02:37:32.928Z,1.00
2023-05-20T02:40:00.791Z,0.20
2023-05-20T02:42:28.500Z,1.00
2023-05-20T02:44:58.747Z,1.00
2023-05-20T02:47:27.495Z,1.00
2023-05-20T02:49:55.161Z,1.00
2023-05-20T02:52:22.731Z,1.00
2023-05-20T02:54:50.366Z,1.20
2023-05-20T02:57:18.094Z,1.00
2023-05-20T02:59:46.300Z,1.00
2023-05-20T03:02:14.576Z,1.00
2023-05-20T03:04:42.250Z,1.00
2023-05-20T03:07:10.455Z,1.00
2023-05-20T03:09:38.212Z,1.00
2023-05-20T03:12:05.974Z,2.00
2023-05-20T03:14:33.502Z,1.60
2023-05-20T03:17:01.338Z,1.60
2023-05-20T03:19:29.277Z,1.00
2023-05-20T03:21:58.182Z,1.00
2023-05-20T03:24:25.821Z,1.00
2023-05-20T03:26:53.558Z,1.00
2023-05-20T03:29:21.587Z,0.20
2023-05-20T03:31:49.225Z,1.00
2023-05-20T03:34:16.963Z,1.20
2023-05-20T03:36:48.142Z,1.80
2023-05-20T03:39:16.382Z,1.40
2023-05-20T03:41:44.947Z,2.00
2023-05-20T03:44:12.676Z,1.80
2023-05-20T03:46:41.036Z,2.00
2023-05-20T03:49:08.841Z,1.80
2023-05-20T03:51:36.423Z,1.20
2023-05-20T03:54:09.520Z,4.40
2023-05-20T03:56:37.304Z,0.20
2023-05-20T03:59:04.867Z,1.00
2023-05-20T04:01:34.188Z,2.20
2023-05-20T04:04:01.781Z,1.40
2023-05-20T04:06:29.843Z,0.60
2023-05-20T04:09:00.183Z,0.00
2023-05-20T04:11:27.913Z,1.00
2023-05-20T04:13:55.673Z,1.80
2023-05-20T04:16:24.145Z,1.00
2023-05-20T04:18:52.921Z,2.00
2023-05-20T04:21:20.711Z,1.00
2023-05-20T04:23:48.846Z,0.40
2023-05-20T04:26:19.417Z,1.40
2023-05-20T04:28:50.302Z,0.80
2023-05-20T04:31:19.835Z,0.00
2023-05-20T04:33:48.119Z,0.00
2023-05-20T04:36:16.788Z,0.00
2023-05-20T04:38:45.191Z,0.00
2023-05-20T04:41:12.808Z,2.00
2023-05-20T04:43:40.684Z,0.00
2023-05-20T04:46:09.277Z,0.50
2023-05-20T04:48:37.482Z,0.50
2023-05-20T04:51:05.347Z,0.00
2023-05-20T04:53:34.324Z,0.75
2023-05-20T04:56:02.154Z,1.00
2023-05-20T04:58:32.136Z,0.00
2023-05-20T05:01:00.383Z,0.50
2023-05-20T05:03:28.516Z,0.00
2023-05-20T05:06:00.924Z,0.00
2023-05-20T05:08:29.057Z,0.00
2023-05-20T05:10:56.630Z,0.00
2023-05-20T05:13:24.460Z,0.40
2023-05-20T05:16:04.380Z,0.00
2023-05-20T05:18:33.488Z,0.00
2023-05-20T05:21:05.477Z,0.20
2023-05-20T05:23:35.293Z,0.00
2023-05-20T05:26:03.131Z,0.00
2023-05-20T05:28:31.289Z,1.00
2023-05-20T05:30:59.374Z,1.00
2023-05-20T05:33:27.258Z,0.00
2023-05-20T05:35:59.494Z,2.00
2023-05-20T05:38:27.726Z,0.00
2023-05-20T05:40:55.451Z,0.00
2023-05-20T05:43:23.719Z,0.60
2023-05-20T05:45:52.497Z,2.00
2023-05-20T05:48:21.497Z,0.60
2023-05-20T05:50:49.400Z,0.80
2023-05-20T05:53:18.840Z,0.00
2023-05-20T05:55:48.964Z,0.00
2023-05-20T05:58:17.942Z,0.00
2023-05-20T06:00:46.263Z,0.00
2023-05-20T06:03:14.188Z,0.00
2023-05-20T06:05:45.424Z,0.00
2023-05-20T06:08:13.362Z,0.00
2023-05-20T06:10:40.862Z,0.00
2023-05-20T06:13:08.720Z,0.00
2023-05-20T06:15:37.008Z,0.00
2023-05-20T06:18:05.142Z,0.00
2023-05-20T06:20:33.786Z,0.00
2023-05-20T06:23:01.617Z,0.00
2023-05-20T06:25:38.681Z,0.00
2023-05-20T06:28:08.636Z,0.00
2023-05-20T06:30:36.909Z,0.00
2023-05-20T06:33:04.960Z,0.00
2023-05-20T06:35:35.192Z,0.00
2023-05-20T06:38:04.164Z,0.00
2023-05-20T06:40:31.919Z,0.00
2023-05-20T06:42:59.682Z,0.00
2023-05-20T06:45:51.283Z,0.00
2023-05-20T06:48:40.046Z,0.00
2023-05-20T06:51:12.327Z,0.00
2023-05-20T06:53:40.802Z,0.00
2023-05-20T06:56:08.615Z,0.00
2023-05-20T06:58:36.308Z,0.00
2023-05-20T07:01:04.107Z,0.00
2023-05-20T07:03:32.196Z,0.00
2023-05-20T07:06:00.139Z,0.00
2023-05-20T07:08:30.354Z,0.00
2023-05-20T07:10:58.442Z,0.00
2023-05-20T07:13:26.511Z,0.00
2023-05-20T07:15:54.318Z,0.00
2023-05-20T07:18:22.190Z,0.00
2023-05-20T07:20:53.840Z,0.00
2023-05-20T07:23:44.649Z,0.00
2023-05-20T07:26:12.396Z,0.00
2023-05-20T07:28:40.080Z,0.00
2023-05-20T07:31:08.361Z,0.00
2023-05-20T07:33:42.674Z,0.00
2023-05-20T07:36:11.409Z,0.00
2023-05-20T07:38:47.249Z,0.00
2023-05-20T07:41:30.280Z,0.00
2023-05-20T07:43:58.022Z,0.00
2023-05-20T07:46:25.810Z,0.00
2023-05-20T07:48:53.534Z,0.00
2023-05-20T07:51:21.802Z,0.00
2023-05-20T07:53:49.652Z,0.00
2023-05-20T07:56:17.570Z,0.00
2023-05-20T07:58:58.640Z,0.00
2023-05-20T08:01:31.220Z,0.00
2023-05-20T08:07:16.659Z,0.00
2023-05-20T08:09:54.362Z,0.00
2023-05-20T08:12:22.808Z,0.00
2023-05-20T08:14:50.912Z,0.00
2023-05-20T08:17:19.275Z,0.00
2023-05-20T08:19:47.639Z,0.00
2023-05-20T08:22:15.396Z,0.00
2023-05-20T08:30:42.023Z,0.00
2023-05-20T08:33:10.292Z,0.00
2023-05-20T08:35:39.975Z,0.00
2023-05-20T08:38:08.330Z,0.00
2023-05-20T08:40:36.886Z,0.00
2023-05-20T08:43:05.885Z,0.00
2023-05-20T08:45:35.619Z,0.00
2023-05-20T08:48:07.926Z,0.00
2023-05-20T08:50:36.076Z,0.00
2023-05-20T08:53:04.178Z,0.00
2023-05-20T08:55:37.106Z,0.00
2023-05-20T08:58:05.844Z,0.00
2023-05-20T09:00:33.814Z,0.00
2023-05-20T09:03:03.213Z,0.00
2023-05-20T09:05:31.112Z,0.00
2023-05-20T09:08:12.574Z,0.00
2023-05-20T09:10:42.201Z,0.00
2023-05-20T09:13:11.820Z,0.00
2023-05-20T09:15:39.669Z,0.00
2023-05-20T09:18:10.013Z,0.00
2023-05-20T09:20:38.931Z,0.00
2023-05-20T09:23:08.357Z,0.00
2023-05-20T09:25:37.710Z,0.00
2023-05-20T09:28:09.160Z,0.00
2023-05-20T09:30:37.158Z,0.00
2023-05-20T09:33:06.261Z,0.00
2023-05-20T09:35:40.043Z,0.00
2023-05-20T09:38:09.266Z,0.00
2023-05-20T09:40:40.968Z,0.00
2023-05-20T09:43:09.289Z,0.00
2023-05-20T09:45:48.725Z,0.00
2023-05-20T09:48:17.096Z,0.00
2023-05-20T09:54:18.345Z,0.00
2023-05-20T09:56:48.509Z,0.00
2023-05-20T09:59:17.681Z,0.00
2023-05-20T10:01:46.880Z,0.00
2023-05-20T10:04:18.002Z,0.00
2023-05-20T10:07:20.912Z,0.00
2023-05-20T10:10:11.556Z,0.00
2023-05-20T10:13:12.668Z,0.00
2023-05-20T10:16:02.001Z,0.00
2023-05-20T10:18:29.701Z,0.00
2023-05-20T10:20:57.838Z,0.00
2023-05-20T10:23:31.906Z,0.00
2023-05-20T10:26:06.747Z,0.00
2023-05-20T10:28:36.742Z,0.00
2023-05-20T10:31:17.519Z,0.00
2023-05-20T10:33:47.093Z,0.00
2023-05-20T10:36:28.406Z,0.00
2023-05-20T10:38:57.596Z,0.00
2023-05-20T10:41:27.775Z,0.00
2023-05-20T10:44:06.460Z,0.00
2023-05-20T10:46:53.874Z,0.00
2023-05-20T10:49:27.137Z,0.00
2023-05-20T10:51:58.885Z,0.00
2023-05-20T10:54:27.475Z,0.00
2023-05-20T10:56:55.905Z,0.00
2023-05-20T10:59:24.367Z,0.00
2023-05-20T11:04:53.677Z,0.00
2023-05-20T11:07:32.007Z,0.00
2023-05-20T11:10:00.577Z,0.00
2023-05-20T11:12:28.985Z,0.00
2023-05-20T11:14:57.256Z,0.00
2023-05-20T11:17:25.563Z,0.00
2023-05-20T11:19:53.534Z,0.00
2023-05-20T11:22:22.148Z,0.00
2023-05-20T11:24:50.163Z,0.00
2023-05-20T11:27:18.219Z,0.00
2023-05-20T11:29:46.194Z,0.00
2023-05-20T11:32:14.358Z,0.00
2023-05-20T11:34:43.461Z,0.00
2023-05-20T11:37:12.042Z,0.00
2023-05-20T11:39:39.732Z,0.00
2023-05-20T11:42:07.553Z,0.00
2023-05-20T11:44:35.727Z,0.00
2023-05-20T11:47:04.627Z,0.00
2023-05-20T11:49:40.756Z,0.00
2023-05-20T11:52:13.016Z,0.00
2023-05-20T11:54:43.348Z,0.00
2023-05-20T11:57:14.156Z,0.00
2023-05-20T11:59:42.435Z,0.00
2023-05-20T12:02:10.509Z,0.00
2023-05-20T12:04:38.461Z,0.00
2023-05-20T12:07:09.764Z,0.00
2023-05-20T12:09:37.629Z,0.00
2023-05-20T12:12:05.990Z,0.00
2023-05-20T12:14:34.046Z,0.00
2023-05-20T12:17:01.843Z,0.00
2023-05-20T12:19:33.699Z,0.00
2023-05-20T12:22:03.908Z,0.00
2023-05-20T12:24:32.351Z,0.00
2023-05-20T12:26:59.899Z,0.00
2023-05-20T12:29:27.810Z,0.00
2023-05-20T12:31:58.497Z,0.00
2023-05-20T12:34:26.587Z,0.00
2023-05-20T12:36:54.893Z,0.00
2023-05-20T12:39:22.994Z,0.00
2023-05-20T12:41:50.974Z,0.00
2023-05-20T12:44:18.693Z,0.00
2023-05-20T12:46:46.911Z,0.00
2023-05-20T12:49:14.888Z,0.00
2023-05-20T12:51:42.858Z,0.00
2023-05-20T12:54:10.700Z,0.00
2023-05-20T12:56:38.535Z,0.00
2023-05-20T12:59:09.128Z,0.00
2023-05-20T13:01:38.665Z,0.00
2023-05-20T13:04:07.196Z,0.00
2023-05-20T13:06:35.568Z,0.00
2023-05-20T13:09:03.464Z,0.00
2023-05-20T13:11:31.263Z,0.00
2023-05-20T13:13:59.213Z,0.00
2023-05-20T13:16:27.457Z,0.00
2023-05-20T13:19:27.635Z,0.00
2023-05-20T13:21:55.734Z,0.00
2023-05-20T13:24:23.842Z,0.00
2023-05-20T13:26:52.270Z,0.00
2023-05-20T13:29:20.083Z,0.00
2023-05-20T13:31:48.448Z,0.00
2023-05-20T13:34:16.194Z,0.00
2023-05-20T13:36:44.401Z,0.00
2023-05-20T13:39:12.593Z,0.00
2023-05-20T13:49:10.861Z,0.00
2023-05-20T13:51:38.739Z,0.00
2023-05-20T13:54:12.884Z,0.00
2023-05-20T13:56:40.919Z,0.00
2023-05-20T13:59:10.897Z,0.00
2023-05-20T14:04:19.903Z,0.00
2023-05-20T14:06:49.939Z,0.00
2023-05-20T14:09:17.874Z,0.00
2023-05-20T14:11:46.150Z,0.00
2023-05-20T14:14:44.811Z,0.00
2023-05-20T14:17:12.619Z,0.00
2023-05-20T14:19:40.763Z,0.00
2023-05-20T14:22:08.584Z,0.00
2023-05-20T14:24:36.531Z,0.00
2023-05-20T14:27:04.648Z,0.00
2023-05-20T14:29:32.632Z,0.00
2023-05-20T14:32:01.840Z,0.00
2023-05-20T14:34:29.926Z,0.00
2023-05-20T14:36:57.861Z,0.00
2023-05-20T14:39:25.990Z,0.00
2023-05-20T14:41:56.842Z,0.00
2023-05-20T14:44:24.774Z,0.00
2023-05-20T14:46:52.756Z,0.00
2023-05-20T14:49:21.327Z,0.00
2023-05-20T14:51:49.201Z,0.00
2023-05-20T14:54:25.228Z,0.00
2023-05-20T14:56:53.441Z,0.00
2023-05-20T14:59:21.313Z,0.00
2023-05-20T15:01:49.181Z,0.00
2023-05-20T15:04:17.199Z,0.00
2023-05-20T15:06:45.179Z,0.00
2023-05-20T15:09:13.050Z,0.00
2023-05-20T15:11:41.024Z,0.00
2023-05-20T15:14:08.997Z,0.00
2023-05-20T15:16:37.299Z,0.00
2023-05-20T15:19:08.333Z,0.00
2023-05-20T15:21:36.253Z,0.00
2023-05-20T15:24:04.186Z,0.00
2023-05-20T15:26:33.112Z,0.00
2023-05-20T15:29:01.001Z,0.00
2023-05-20T15:31:29.015Z,0.00
2023-05-20T15:33:57.140Z,0.00
2023-05-20T15:36:25.260Z,0.00
2023-05-20T15:38:53.461Z,0.00
2023-05-20T15:41:22.069Z,0.00
2023-05-20T15:43:49.901Z,0.00
2023-05-20T15:46:18.087Z,0.00
2023-05-20T15:48:46.065Z,0.00
2023-05-20T15:51:18.282Z,0.00
2023-05-20T15:53:46.389Z,0.00
2023-05-20T15:56:14.296Z,0.00
2023-05-20T15:58:42.134Z,0.00
2023-05-20T16:01:09.858Z,0.00
2023-05-20T16:03:38.016Z,0.00
2023-05-20T16:06:06.348Z,0.00
2023-05-20T16:08:36.661Z,0.00
2023-05-20T16:11:05.546Z,0.00
2023-05-20T16:13:33.406Z,0.00
2023-05-20T16:16:01.537Z,0.00
2023-05-20T16:18:30.002Z,0.00
2023-05-20T16:20:58.554Z,0.00
2023-05-20T16:23:26.417Z,0.00
2023-05-20T16:25:54.380Z,0.00
2023-05-20T16:28:22.696Z,0.00
2023-05-20T16:30:50.360Z,0.00
2023-05-20T16:33:18.377Z,0.00
2023-05-20T16:35:46.189Z,0.00
2023-05-20T16:38:14.131Z,0.00
2023-05-20T16:40:42.144Z,0.00
2023-05-20T16:43:10.257Z,0.00
2023-05-20T16:45:37.981Z,0.00
2023-05-20T16:48:06.337Z,0.00
2023-05-20T16:50:34.568Z,0.00
2023-05-20T16:53:02.521Z,0.00
2023-05-20T16:55:30.385Z,0.00
2023-05-20T16:57:58.144Z,0.00
2023-05-20T17:00:27.006Z,0.00
2023-05-20T17:02:54.879Z,0.00
2023-05-20T17:05:23.370Z,0.00
2023-05-20T17:07:51.459Z,0.00
2023-05-20T17:10:19.581Z,0.00
2023-05-20T17:12:47.487Z,0.00
2023-05-20T17:15:15.472Z,0.00
2023-05-20T17:17:43.295Z,0.00
2023-05-20T17:20:11.719Z,0.00
2023-05-20T17:22:40.060Z,0.00
2023-05-20T17:25:08.515Z,0.00
2023-05-20T17:27:36.298Z,0.00
2023-05-20T17:30:36.128Z,0.00
2023-05-20T17:33:04.323Z,0.00
2023-05-20T17:35:32.318Z,0.00
2023-05-20T17:38:00.224Z,0.00
2023-05-20T17:40:28.625Z,0.00
2023-05-20T17:42:56.472Z,0.00
2023-05-20T17:45:24.462Z,0.00
2023-05-20T17:47:52.578Z,0.00
2023-05-20T17:50:20.405Z,0.00
2023-05-20T17:52:48.168Z,0.00
2023-05-20T17:55:18.749Z,0.00
2023-05-20T17:57:46.535Z,0.00
2023-05-20T18:00:15.940Z,0.00
2023-05-20T18:02:48.527Z,0.00
2023-05-20T18:05:17.298Z,0.00
2023-05-20T18:07:45.250Z,0.00
2023-05-20T18:10:13.092Z,0.00
2023-05-20T18:12:43.014Z,0.00
2023-05-20T18:15:11.244Z,0.00
2023-05-20T18:17:40.592Z,0.00
2023-05-20T18:20:10.078Z,0.00
2023-05-20T18:22:37.904Z,0.00
2023-05-20T18:25:06.768Z,0.00
2023-05-20T18:27:34.638Z,0.00
2023-05-20T18:30:02.776Z,21.00
2023-05-20T18:32:30.597Z,30.00
2023-05-20T18:34:58.874Z,28.20
2023-05-20T18:37:28.153Z,16.75
2023-05-20T18:39:58.437Z,5.25
2023-05-20T18:42:26.856Z,0.75
2023-05-20T18:44:54.971Z,0.00
2023-05-20T18:47:23.336Z,0.00
2023-05-20T18:49:51.399Z,0.00
2023-05-20T18:52:22.579Z,0.00
2023-05-20T18:54:50.514Z,0.00
2023-05-20T18:57:18.617Z,0.00
2023-05-20T18:59:48.445Z,0.00
2023-05-20T19:02:17.368Z,0.00
2023-05-20T19:04:45.485Z,0.00
2023-05-20T19:07:13.682Z,2.50
2023-05-20T19:09:41.944Z,0.00
2023-05-20T19:12:09.878Z,20.00
2023-05-20T19:14:37.797Z,78.33
2023-05-20T19:17:06.344Z,0.75
2023-05-20T19:19:34.385Z,81.75
2023-05-20T19:22:02.343Z,78.25
2023-05-20T19:24:32.272Z,88.00
2023-05-20T19:27:00.152Z,88.33
2023-05-20T19:29:28.094Z,69.75
2023-05-20T19:31:56.796Z,76.00
2023-05-20T19:34:25.968Z,67.50
2023-05-20T19:36:53.909Z,79.75
2023-05-20T19:39:22.506Z,81.33
2023-05-20T19:41:50.498Z,63.75
2023-05-20T19:44:19.317Z,68.50
2023-05-20T19:46:48.043Z,49.80
2023-05-20T19:49:15.793Z,37.80
2023-05-20T19:51:43.553Z,29.40
2023-05-20T19:54:11.421Z,8.40
2023-05-20T19:56:39.588Z,2.80
2023-05-20T19:59:07.213Z,0.40
2023-05-20T20:01:35.201Z,0.00
2023-05-20T20:04:03.135Z,0.00
2023-05-20T20:06:31.263Z,0.00
2023-05-20T20:08:59.229Z,0.00
2023-05-20T20:11:27.217Z,0.00
2023-05-20T20:13:54.994Z,0.00
2023-05-20T20:16:23.385Z,0.00
2023-05-20T20:18:51.328Z,0.00
2023-05-20T20:21:19.103Z,0.00
2023-05-20T20:23:46.845Z,0.00
2023-05-20T20:26:14.487Z,0.00
2023-05-20T20:28:42.367Z,0.00
2023-05-20T20:31:10.115Z,0.00
2023-05-20T20:33:37.755Z,0.00
2023-05-20T20:36:05.735Z,0.00
2023-05-20T20:38:33.434Z,0.00
2023-05-20T20:41:04.066Z,0.00
2023-05-20T20:43:34.961Z,0.00
2023-05-20T20:46:02.864Z,0.00
2023-05-20T20:48:30.442Z,0.00
2023-05-20T20:50:59.307Z,0.00
2023-05-20T20:53:27.176Z,0.00
2023-05-20T20:55:54.984Z,0.00
2023-05-20T20:58:22.918Z,0.00
2023-05-20T21:00:50.759Z,0.00
2023-05-20T21:03:18.835Z,0.00
2023-05-20T21:05:46.313Z,0.00
2023-05-20T21:08:13.872Z,0.00
2023-05-20T21:10:41.502Z,0.00
2023-05-20T21:13:09.524Z,0.00
2023-05-20T21:15:37.334Z,0.00
2023-05-20T21:18:05.063Z,0.00
2023-05-20T21:20:33.058Z,0.00
2023-05-20T21:23:00.892Z,0.00
2023-05-20T21:25:28.478Z,0.00
2023-05-20T21:27:56.330Z,0.00
2023-05-20T21:30:24.826Z,0.00
2023-05-20T21:32:52.410Z,0.00
2023-05-20T21:35:20.033Z,0.00
2023-05-20T21:37:47.703Z,0.00
2023-05-20T21:40:15.339Z,0.00
2023-05-20T21:42:42.907Z,0.00
2023-05-20T21:45:11.016Z,0.00
2023-05-20T21:47:38.811Z,0.00
2023-05-20T21:50:07.630Z,0.00
2023-05-20T21:52:35.401Z,0.00
2023-05-20T21:55:02.966Z,0.00
2023-05-20T21:57:30.687Z,0.00
2023-05-20T21:59:58.215Z,0.00
2023-05-20T22:02:25.951Z,0.00
2023-05-20T22:04:53.820Z,0.00
2023-05-20T22:07:21.430Z,0.00
2023-05-20T22:09:48.977Z,0.00
2023-05-20T22:12:16.668Z,0.00
2023-05-20T22:14:44.279Z,0.00
2023-05-20T22:17:11.922Z,0.00
2023-05-20T22:19:40.526Z,0.00
2023-05-20T22:22:08.175Z,0.00
2023-05-20T22:24:35.724Z,0.00
2023-05-20T22:27:04.281Z,0.00
2023-05-20T22:29:32.752Z,0.00
2023-05-20T22:32:00.692Z,0.00
2023-05-20T22:34:28.545Z,0.00
2023-05-20T22:36:56.130Z,0.00
2023-05-20T22:39:23.483Z,0.00
2023-05-20T22:41:51.262Z,0.00
2023-05-20T22:44:18.855Z,0.00
2023-05-20T22:46:46.406Z,0.00
2023-05-20T22:49:14.828Z,0.00
2023-05-20T22:51:43.014Z,0.00
2023-05-20T22:54:10.591Z,0.00
2023-05-20T22:56:38.205Z,0.00
2023-05-20T22:59:05.757Z,0.00
2023-05-20T23:01:33.463Z,0.00
2023-05-20T23:04:01.103Z,0.00
2023-05-20T23:06:28.847Z,0.00
2023-05-20T23:08:56.375Z,0.00
2023-05-20T23:11:24.202Z,0.00
2023-05-20T23:13:51.849Z,0.00
2023-05-20T23:16:19.417Z,0.00
2023-05-20T23:18:47.820Z,0.00
2023-05-20T23:21:15.693Z,0.00
2023-05-20T23:23:43.197Z,0.00
2023-05-20T23:26:12.095Z,0.00
2023-05-20T23:28:40.186Z,0.00
2023-05-20T23:31:09.527Z,0.00
2023-05-20T23:33:37.139Z,0.00
2023-05-20T23:36:05.112Z,0.00
2023-05-20T23:38:32.695Z,0.00
2023-05-20T23:41:00.285Z,0.00
2023-05-20T23:43:28.006Z,0.00
2023-05-20T23:45:55.638Z,0.00
2023-05-20T23:48:23.752Z,0.00
2023-05-20T23:50:51.305Z,0.00
2023-05-20T23:53:18.976Z,0.00
2023-05-20T23:55:49.730Z,0.00
2023-05-20T23:58:17.482Z,0.00
